createdAt,value
2018-03-28T00:01:35.540Z,17.40
2018-03-28T00:04:01.938Z,16.12
2018-03-28T00:06:28.399Z,13.35
2018-03-28T00:08:54.787Z,14.80
2018-03-28T00:11:21.229Z,17.48
2018-03-28T00:13:47.630Z,16.30
2018-03-28T00:16:14.733Z,15.65
2018-03-28T00:18:41.043Z,15.33
2018-03-28T00:21:07.396Z,18.20
2018-03-28T00:23:33.757Z,15.70
2018-03-28T00:26:00.141Z,16.30
2018-03-28T00:28:26.563Z,15.53
2018-03-28T00:30:53.745Z,14.23
2018-03-28T00:33:20.130Z,14.90
2018-03-28T00:35:46.525Z,14.87
2018-03-28T00:38:12.992Z,14.40
2018-03-28T00:40:39.346Z,20.25
2018-03-28T00:43:05.703Z,15.95
2018-03-28T00:45:32.871Z,15.23
2018-03-28T00:47:59.294Z,17.27
2018-03-28T00:50:25.690Z,15.60
2018-03-28T00:52:52.121Z,15.97
2018-03-28T00:55:18.448Z,14.23
2018-03-28T00:57:44.731Z,19.02
2018-03-28T01:00:11.029Z,14.87
2018-03-28T01:02:37.332Z,17.52
2018-03-28T01:05:04.401Z,22.67
2018-03-28T01:07:31.422Z,17.30
2018-03-28T01:09:57.780Z,17.80
2018-03-28T01:12:24.030Z,19.23
2018-03-28T01:14:51.055Z,18.17
2018-03-28T01:17:17.349Z,16.30
2018-03-28T01:19:43.622Z,20.83
2018-03-28T01:22:09.914Z,18.58
2018-03-28T01:24:36.964Z,24.23
2018-03-28T01:27:03.387Z,22.20
2018-03-28T01:29:29.706Z,24.98
2018-03-28T01:31:55.984Z,31.85
2018-03-28T01:34:22.277Z,30.37
2018-03-28T01:36:49.323Z,32.97
2018-03-28T01:39:16.349Z,32.28
2018-03-28T01:41:42.652Z,33.37
2018-03-28T01:44:08.957Z,31.95
2018-03-28T01:46:35.966Z,30.20
2018-03-28T01:49:02.253Z,35.53
2018-03-28T01:51:28.525Z,40.60
2018-03-28T01:53:55.529Z,39.97
2018-03-28T01:56:21.801Z,43.80
2018-03-28T01:58:48.063Z,44.47
2018-03-28T02:01:15.063Z,45.60
2018-03-28T02:03:41.337Z,45.20
2018-03-28T02:06:08.374Z,50.45
2018-03-28T02:08:34.679Z,50.85
2018-03-28T02:11:00.957Z,47.45
2018-03-28T02:13:27.212Z,48.08
2018-03-28T02:15:53.519Z,60.38
2018-03-28T02:18:19.784Z,54.77
2018-03-28T02:20:46.057Z,63.15
2018-03-28T02:23:12.326Z,60.05
2018-03-28T02:25:39.332Z,61.33
2018-03-28T02:28:05.596Z,62.03
2018-03-28T02:30:32.627Z,77.25
2018-03-28T02:32:58.903Z,73.73
2018-03-28T02:35:25.150Z,64.00
2018-03-28T02:37:52.125Z,83.85
2018-03-28T02:40:18.378Z,81.60
2018-03-28T02:42:44.637Z,83.10
2018-03-28T02:45:10.887Z,69.43
2018-03-28T02:47:37.129Z,83.22
2018-03-28T02:50:03.378Z,89.13
2018-03-28T02:52:29.613Z,86.95
2018-03-28T02:54:55.888Z,93.87
2018-03-28T02:57:22.108Z,93.60
2018-03-28T02:59:48.465Z,91.57
2018-03-28T03:02:15.469Z,93.60
2018-03-28T03:04:41.709Z,99.57
2018-03-28T03:07:07.966Z,102.55
2018-03-28T03:09:34.235Z,103.97
2018-03-28T03:12:00.489Z,103.23
2018-03-28T03:14:27.464Z,109.10
2018-03-28T03:16:54.437Z,96.55
2018-03-28T03:19:20.692Z,95.45
2018-03-28T03:21:46.965Z,107.55
2018-03-28T03:24:13.201Z,104.93
2018-03-28T03:26:39.459Z,100.30
2018-03-28T03:29:05.718Z,104.68
2018-03-28T03:31:32.560Z,102.68
2018-03-28T03:33:58.790Z,90.72
2018-03-28T03:36:25.052Z,106.95
2018-03-28T03:38:51.284Z,90.17
2018-03-28T03:41:18.293Z,97.20
2018-03-28T03:43:44.543Z,96.63
2018-03-28T03:46:10.793Z,107.18
2018-03-28T03:48:37.132Z,102.00
2018-03-28T03:51:03.407Z,95.62
2018-03-28T03:53:29.650Z,95.68
2018-03-28T03:55:55.893Z,102.87
2018-03-28T03:58:22.893Z,102.10
2018-03-28T04:00:49.128Z,99.97
2018-03-28T04:03:15.376Z,104.63
2018-03-28T04:05:41.607Z,103.38
2018-03-28T04:08:07.881Z,90.20
2018-03-28T04:10:34.142Z,96.95
2018-03-28T04:13:00.386Z,92.63
2018-03-28T04:15:26.626Z,98.23
2018-03-28T04:17:52.862Z,86.77
2018-03-28T04:20:19.092Z,92.40
2018-03-28T04:22:45.325Z,98.50
2018-03-28T04:25:11.578Z,91.37
2018-03-28T04:27:37.813Z,83.90
2018-03-28T04:30:04.067Z,98.43
2018-03-28T04:32:30.314Z,87.37
2018-03-28T04:34:56.561Z,94.73
2018-03-28T04:37:22.885Z,89.80
2018-03-28T04:39:50.614Z,93.07
2018-03-28T04:42:17.625Z,81.97
2018-03-28T04:44:43.877Z,94.27
2018-03-28T04:47:10.126Z,108.60
2018-03-28T04:49:36.378Z,93.70
2018-03-28T04:52:02.935Z,101.95
2018-03-28T04:54:29.203Z,96.27
2018-03-28T04:56:55.534Z,97.93
2018-03-28T04:59:23.274Z,94.07
2018-03-28T05:01:50.274Z,92.30
2018-03-28T05:04:16.564Z,97.57
2018-03-28T05:06:42.818Z,101.57
2018-03-28T05:09:09.890Z,94.80
2018-03-28T05:11:36.855Z,110.60
2018-03-28T05:14:03.870Z,113.07
2018-03-28T05:16:30.105Z,108.80
2018-03-28T05:18:56.337Z,110.70
2018-03-28T05:21:22.586Z,123.55
2018-03-28T05:23:50.131Z,119.90
2018-03-28T05:26:16.386Z,110.93
2018-03-28T05:28:42.654Z,117.87
2018-03-28T05:31:08.926Z,135.90
2018-03-28T05:33:35.225Z,116.70
2018-03-28T05:36:01.489Z,128.63
2018-03-28T05:38:27.732Z,125.67
2018-03-28T05:40:53.992Z,121.30
2018-03-28T05:43:20.242Z,114.50
2018-03-28T05:45:47.256Z,118.70
2018-03-28T05:48:14.255Z,126.87
2018-03-28T05:50:40.529Z,111.03
2018-03-28T05:53:06.767Z,111.37
2018-03-28T05:55:33.058Z,101.80
2018-03-28T05:57:59.325Z,114.97
2018-03-28T06:00:26.321Z,110.53
2018-03-28T06:02:52.595Z,106.47
2018-03-28T06:05:18.886Z,101.73
2018-03-28T06:07:45.140Z,111.13
2018-03-28T06:10:11.492Z,99.83
2018-03-28T06:12:37.751Z,106.57
2018-03-28T06:15:04.025Z,94.07
2018-03-28T06:17:30.334Z,89.50
2018-03-28T06:19:57.313Z,89.00
2018-03-28T06:22:24.293Z,91.23
2018-03-28T06:24:51.330Z,86.67
2018-03-28T06:27:18.356Z,86.10
2018-03-28T06:29:44.616Z,87.87
2018-03-28T06:32:10.903Z,99.10
2018-03-28T06:34:37.337Z,82.72
2018-03-28T06:37:03.774Z,80.23
2018-03-28T06:39:30.047Z,89.30
2018-03-28T06:41:56.355Z,83.43
2018-03-28T06:44:22.671Z,86.85
2018-03-28T06:46:48.927Z,98.20
2018-03-28T06:49:15.191Z,85.63
2018-03-28T06:51:42.205Z,83.05
2018-03-28T06:54:08.474Z,86.87
2018-03-28T06:56:34.774Z,92.55
2018-03-28T06:59:01.037Z,92.33
2018-03-28T07:01:27.371Z,97.67
2018-03-28T07:03:53.686Z,85.13
2018-03-28T07:06:19.951Z,81.47
2018-03-28T07:08:46.238Z,77.20
2018-03-28T07:11:12.552Z,91.17
2018-03-28T07:13:38.853Z,77.63
2018-03-28T07:16:08.249Z,79.73
2018-03-28T07:18:34.562Z,64.67
2018-03-28T07:21:00.854Z,69.87
2018-03-28T07:23:27.131Z,76.70
2018-03-28T07:25:53.382Z,67.33
2018-03-28T07:28:19.601Z,62.97
2018-03-28T07:30:46.565Z,72.57
2018-03-28T07:33:12.813Z,69.53
2018-03-28T07:35:39.092Z,70.50
2018-03-28T07:38:06.082Z,55.83
2018-03-28T07:40:32.365Z,64.33
2018-03-28T07:42:59.374Z,63.60
2018-03-28T07:45:25.599Z,65.23
2018-03-28T07:47:51.838Z,64.93
2018-03-28T07:50:18.079Z,72.10
2018-03-28T07:52:45.032Z,76.03
2018-03-28T07:55:12.073Z,73.60
2018-03-28T07:57:40.253Z,76.13
2018-03-28T08:00:06.517Z,73.20
2018-03-28T08:02:33.602Z,72.53
2018-03-28T08:04:59.845Z,74.37
2018-03-28T08:07:26.159Z,58.30
2018-03-28T08:09:53.138Z,59.67
2018-03-28T08:12:19.414Z,62.17
2018-03-28T08:14:45.626Z,62.90
2018-03-28T08:17:11.870Z,62.23
2018-03-28T08:19:38.840Z,58.53
2018-03-28T08:22:09.149Z,61.70
2018-03-28T08:24:36.089Z,54.63
2018-03-28T08:27:02.370Z,58.33
2018-03-28T08:29:29.386Z,60.93
2018-03-28T08:31:55.609Z,65.03
2018-03-28T08:34:21.844Z,63.00
2018-03-28T08:36:48.069Z,60.00
2018-03-28T08:39:17.352Z,56.47
2018-03-28T08:41:43.624Z,66.37
2018-03-28T08:44:09.874Z,63.23
2018-03-28T08:46:36.148Z,62.40
2018-03-28T08:49:02.416Z,58.37
2018-03-28T08:51:28.647Z,67.40
2018-03-28T08:53:54.886Z,61.60
2018-03-28T08:56:21.136Z,62.97
2018-03-28T08:58:47.378Z,59.67
2018-03-28T09:01:13.626Z,59.60
2018-03-28T09:03:39.854Z,59.93
2018-03-28T09:06:06.862Z,61.57
2018-03-28T09:08:33.126Z,63.90
2018-03-28T09:11:00.115Z,67.23
2018-03-28T09:13:26.362Z,64.77
2018-03-28T09:15:52.617Z,60.10
2018-03-28T09:18:19.569Z,60.37
2018-03-28T09:20:46.588Z,56.40
2018-03-28T09:23:12.814Z,55.50
2018-03-28T09:25:39.068Z,56.23
2018-03-28T09:28:05.358Z,54.83
2018-03-28T09:30:31.630Z,51.10
2018-03-28T09:32:58.734Z,48.97
2018-03-28T09:35:25.030Z,51.10
2018-03-28T09:37:51.294Z,54.80
2018-03-28T09:40:17.554Z,49.67
2018-03-28T09:42:43.922Z,43.40
2018-03-28T09:45:10.946Z,47.00
2018-03-28T09:47:37.212Z,46.50
2018-03-28T09:50:04.264Z,46.43
2018-03-28T09:52:30.537Z,43.00
2018-03-28T09:54:57.498Z,43.87
2018-03-28T09:57:23.753Z,39.27
2018-03-28T09:59:50.026Z,40.73
2018-03-28T10:02:16.338Z,42.83
2018-03-28T10:04:48.610Z,41.70
2018-03-28T10:07:14.861Z,47.40
2018-03-28T10:09:41.106Z,42.77
2018-03-28T10:12:07.365Z,41.70
2018-03-28T10:14:33.870Z,45.00
2018-03-28T10:17:00.226Z,44.80
2018-03-28T10:19:26.504Z,47.70
2018-03-28T10:21:52.742Z,45.27
2018-03-28T10:24:19.018Z,46.17
2018-03-28T10:26:45.274Z,50.80
2018-03-28T10:29:12.282Z,50.30
2018-03-28T10:31:38.586Z,44.27
2018-03-28T10:34:04.892Z,43.90
2018-03-28T10:36:31.168Z,36.87
2018-03-28T10:38:57.440Z,31.73
2018-03-28T10:41:23.699Z,29.63
2018-03-28T10:43:49.961Z,27.07
2018-03-28T10:46:17.241Z,31.70
2018-03-28T10:48:43.492Z,33.47
2018-03-28T10:51:09.789Z,31.47
2018-03-28T10:53:36.826Z,29.73
2018-03-28T10:56:03.082Z,27.87
2018-03-28T10:58:29.373Z,31.97
2018-03-28T11:00:56.411Z,31.00
2018-03-28T11:03:22.706Z,28.30
2018-03-28T11:05:49.018Z,31.77
2018-03-28T11:08:16.117Z,29.00
2018-03-28T11:10:42.376Z,30.77
2018-03-28T11:13:08.665Z,30.53
2018-03-28T11:15:34.933Z,35.87
2018-03-28T11:18:01.278Z,34.07
2018-03-28T11:20:27.648Z,32.60
2018-03-28T11:22:53.829Z,37.13
2018-03-28T11:25:20.859Z,35.27
2018-03-28T11:27:47.153Z,38.50
2018-03-28T11:30:14.105Z,39.43
2018-03-28T11:32:40.359Z,40.23
2018-03-28T11:35:06.663Z,40.47
2018-03-28T11:37:33.010Z,44.53
2018-03-28T11:39:59.991Z,42.77
2018-03-28T11:42:26.248Z,44.23
2018-03-28T11:44:52.502Z,42.40
2018-03-28T11:47:18.740Z,39.83
2018-03-28T11:49:44.962Z,41.70
2018-03-28T11:52:11.185Z,41.10
2018-03-28T11:54:37.417Z,44.83
2018-03-28T11:57:04.411Z,46.33
2018-03-28T11:59:30.640Z,44.07
2018-03-28T12:01:56.926Z,43.93
2018-03-28T12:04:23.166Z,43.57
2018-03-28T12:06:49.409Z,39.83
2018-03-28T12:09:16.371Z,41.40
2018-03-28T12:11:42.608Z,44.13
2018-03-28T12:14:08.819Z,41.33
2018-03-28T12:16:35.065Z,42.20
2018-03-28T12:19:01.318Z,42.20
2018-03-28T12:21:27.557Z,44.50
2018-03-28T12:23:53.809Z,47.13
2018-03-28T12:26:20.041Z,43.37
2018-03-28T12:28:46.408Z,41.97
2018-03-28T12:31:12.620Z,39.17
2018-03-28T12:33:38.819Z,49.53
2018-03-28T12:36:05.094Z,45.27
2018-03-28T12:38:31.338Z,43.40
2018-03-28T12:40:57.585Z,37.93
2018-03-28T12:43:23.836Z,40.10
2018-03-28T12:45:50.057Z,43.43
2018-03-28T12:48:16.326Z,37.13
2018-03-28T12:50:42.554Z,37.10
2018-03-28T12:53:08.785Z,36.17
2018-03-28T12:55:35.214Z,36.33
2018-03-28T12:58:07.173Z,36.70
2018-03-28T13:00:33.418Z,36.97
2018-03-28T13:02:59.630Z,36.20
2018-03-28T13:05:25.884Z,40.93
2018-03-28T13:07:52.186Z,36.70
2018-03-28T13:10:19.134Z,36.13
2018-03-28T13:12:45.386Z,31.00
2018-03-28T13:15:11.609Z,29.27
2018-03-28T13:17:37.880Z,30.43
2018-03-28T13:20:07.716Z,31.60
2018-03-28T13:22:33.969Z,30.23
2018-03-28T13:25:01.285Z,32.10
2018-03-28T13:27:27.565Z,35.30
2018-03-28T13:29:53.814Z,32.13
2018-03-28T13:32:20.065Z,33.57
2018-03-28T13:34:52.074Z,32.70
2018-03-28T13:37:18.345Z,35.10
2018-03-28T13:39:44.606Z,35.10
2018-03-28T13:42:10.845Z,34.17
2018-03-28T13:44:38.629Z,41.47
2018-03-28T13:47:05.646Z,37.60
2018-03-28T13:49:37.537Z,40.80
2018-03-28T13:52:05.269Z,41.00
2018-03-28T13:54:31.497Z,39.67
2018-03-28T13:56:57.721Z,35.70
2018-03-28T13:59:23.949Z,30.53
2018-03-28T14:01:50.182Z,26.87
2018-03-28T14:04:16.413Z,25.00
2018-03-28T14:06:42.669Z,25.00
2018-03-28T14:09:08.897Z,27.50
2018-03-28T14:11:35.131Z,25.00
2018-03-28T14:14:02.900Z,22.60
2018-03-28T14:16:29.193Z,23.50
2018-03-28T14:18:55.434Z,22.33
2018-03-28T14:21:21.649Z,23.70
2018-03-28T14:23:47.911Z,18.33
2018-03-28T14:26:14.930Z,21.57
2018-03-28T14:28:41.190Z,19.67
2018-03-28T14:31:07.482Z,20.07
2018-03-28T14:33:34.470Z,19.53
2018-03-28T14:36:00.776Z,19.10
2018-03-28T14:38:27.765Z,20.07
2018-03-28T14:40:54.745Z,19.50
2018-03-28T14:43:20.990Z,15.63
2018-03-28T14:45:47.310Z,14.40
2018-03-28T14:48:14.286Z,10.50
2018-03-28T14:50:40.519Z,6.67
2018-03-28T14:53:06.771Z,7.47
2018-03-28T14:55:33.001Z,4.97
2018-03-28T14:57:59.245Z,7.10
2018-03-28T15:00:25.523Z,7.43
2018-03-28T15:02:51.769Z,10.67
2018-03-28T15:05:17.982Z,6.78
2018-03-28T15:07:44.250Z,9.87
2018-03-28T15:10:10.475Z,9.93
2018-03-28T15:12:36.746Z,7.77
2018-03-28T15:15:03.007Z,8.48
2018-03-28T15:17:30.502Z,6.62
2018-03-28T15:19:57.889Z,8.95
2018-03-28T15:22:24.117Z,9.15
2018-03-28T15:24:50.346Z,9.32
2018-03-28T15:27:16.581Z,7.60
2018-03-28T15:29:42.866Z,10.23
2018-03-28T15:32:10.624Z,7.53
2018-03-28T15:34:36.912Z,9.43
2018-03-28T15:37:03.202Z,7.82
2018-03-28T15:39:29.480Z,10.73
2018-03-28T15:41:56.546Z,7.20
2018-03-28T15:44:22.753Z,8.10
2018-03-28T15:46:49.768Z,7.20
2018-03-28T15:49:16.021Z,11.20
2018-03-28T15:51:42.554Z,8.23
2018-03-28T15:54:08.894Z,7.53
2018-03-28T15:56:35.204Z,8.43
2018-03-28T15:59:08.469Z,7.03
2018-03-28T16:01:36.235Z,7.78
2018-03-28T16:04:02.521Z,13.52
2018-03-28T16:06:28.737Z,10.85
2018-03-28T16:08:54.999Z,9.57
2018-03-28T16:11:21.257Z,9.25
2018-03-28T16:13:47.516Z,10.38
2018-03-28T16:16:13.877Z,8.30
2018-03-28T16:18:40.138Z,7.73
2018-03-28T16:21:06.414Z,6.15
2018-03-28T16:23:32.735Z,7.93
2018-03-28T16:25:59.766Z,8.75
2018-03-28T16:28:26.010Z,6.62
2018-03-28T16:30:52.261Z,9.95
2018-03-28T16:33:19.247Z,9.38
2018-03-28T16:35:45.548Z,7.03
2018-03-28T16:38:11.785Z,12.65
2018-03-28T16:40:38.749Z,11.97
2018-03-28T16:43:05.011Z,8.68
2018-03-28T16:45:32.294Z,7.00
2018-03-28T16:47:58.698Z,10.77
2018-03-28T16:50:25.389Z,9.47
2018-03-28T16:52:51.625Z,7.13
2018-03-28T16:55:17.895Z,13.40
2018-03-28T16:57:44.073Z,8.93
2018-03-28T17:00:11.020Z,12.23
2018-03-28T17:02:41.222Z,10.67
2018-03-28T17:05:07.488Z,12.90
2018-03-28T17:07:33.764Z,9.00
2018-03-28T17:10:00.011Z,7.90
2018-03-28T17:12:26.317Z,9.30
2018-03-28T17:14:52.546Z,12.77
2018-03-28T17:17:19.564Z,10.77
2018-03-28T17:19:45.761Z,9.60
2018-03-28T17:22:12.442Z,10.00
2018-03-28T17:24:40.833Z,14.20
2018-03-28T17:27:07.079Z,11.90
2018-03-28T17:29:33.385Z,15.10
2018-03-28T17:32:00.382Z,17.60
2018-03-28T17:34:26.669Z,12.40
2018-03-28T17:36:53.734Z,17.23
2018-03-28T17:39:20.008Z,12.70
2018-03-28T17:41:46.407Z,10.00
2018-03-28T17:44:12.878Z,15.45
2018-03-28T17:46:42.436Z,13.13
2018-03-28T17:49:10.102Z,12.90
2018-03-28T17:51:36.368Z,11.27
2018-03-28T17:54:02.669Z,9.67
2018-03-28T17:56:29.071Z,11.73
2018-03-28T17:58:56.180Z,12.90
2018-03-28T18:01:22.440Z,13.70
2018-03-28T18:03:48.705Z,14.53
2018-03-28T18:06:15.008Z,12.13
2018-03-28T18:08:41.313Z,10.07
2018-03-28T18:11:08.330Z,12.80
2018-03-28T18:13:34.619Z,11.03
2018-03-28T18:16:01.015Z,9.30
2018-03-28T18:18:28.066Z,13.10
2018-03-28T18:20:54.364Z,14.77
2018-03-28T18:23:20.678Z,11.43
2018-03-28T18:25:46.962Z,14.50
2018-03-28T18:28:13.201Z,15.67
2018-03-28T18:30:39.418Z,14.10
2018-03-28T18:33:05.646Z,16.80
2018-03-28T18:35:31.933Z,13.37
2018-03-28T18:37:58.182Z,12.93
2018-03-28T18:40:24.471Z,8.60
2018-03-28T18:42:50.717Z,4.63
2018-03-28T18:45:17.750Z,4.70
2018-03-28T18:47:44.074Z,3.92
2018-03-28T18:50:10.293Z,5.73
2018-03-28T18:52:37.298Z,7.33
2018-03-28T18:55:03.578Z,7.07
2018-03-28T18:57:30.593Z,5.80
2018-03-28T18:59:56.865Z,6.60
2018-03-28T19:02:23.907Z,6.70
2018-03-28T19:04:50.155Z,7.30
2018-03-28T19:07:17.201Z,8.03
2018-03-28T19:09:43.465Z,7.90
2018-03-28T19:12:09.728Z,6.50
2018-03-28T19:14:35.984Z,6.70
2018-03-28T19:17:03.001Z,7.17
2018-03-28T19:19:30.027Z,10.57
2018-03-28T19:21:56.362Z,10.33
2018-03-28T19:24:22.657Z,12.00
2018-03-28T19:26:49.713Z,15.07
2018-03-28T19:29:15.966Z,14.97
2018-03-28T19:31:42.982Z,16.10
2018-03-28T19:34:09.234Z,15.00
2018-03-28T19:36:35.539Z,12.60
2018-03-28T19:39:01.829Z,11.40
2018-03-28T19:41:28.094Z,9.60
2018-03-28T19:43:54.576Z,9.30
2018-03-28T19:46:20.881Z,7.15
2018-03-28T19:48:47.930Z,6.97
2018-03-28T19:51:14.182Z,5.35
2018-03-28T19:53:41.193Z,6.07
2018-03-28T19:56:07.483Z,5.55
2018-03-28T19:58:33.708Z,5.18
2018-03-28T20:00:59.953Z,6.78
2018-03-28T20:03:26.313Z,6.18
2018-03-28T20:05:53.292Z,9.30
2018-03-28T20:08:20.276Z,10.82
2018-03-28T20:10:46.550Z,10.43
2018-03-28T20:13:12.795Z,10.45
2018-03-28T20:15:39.149Z,9.70
2018-03-28T20:18:06.199Z,11.63
2018-03-28T20:20:32.541Z,11.63
2018-03-28T20:22:58.948Z,14.82
2018-03-28T20:25:25.206Z,14.45
2018-03-28T20:27:53.909Z,14.35
2018-03-28T20:30:20.150Z,19.42
2018-03-28T20:32:46.414Z,16.48
2018-03-28T20:35:12.709Z,19.70
2018-03-28T20:37:38.990Z,19.77
2018-03-28T20:40:05.294Z,24.00
2018-03-28T20:42:31.626Z,24.65
2018-03-28T20:44:58.126Z,25.23
2018-03-28T20:47:25.166Z,26.33
2018-03-28T20:49:51.457Z,26.60
2018-03-28T20:52:18.533Z,27.55
2018-03-28T20:54:45.901Z,27.80
2018-03-28T20:57:12.251Z,27.95
2018-03-28T20:59:38.518Z,28.73
2018-03-28T21:02:05.414Z,27.83
2018-03-28T21:04:31.769Z,28.85
2018-03-28T21:06:58.935Z,26.25
2018-03-28T21:09:26.096Z,24.85
2018-03-28T21:11:52.455Z,25.00
2018-03-28T21:14:18.814Z,27.23
2018-03-28T21:16:45.941Z,27.90
2018-03-28T21:19:12.280Z,24.05
2018-03-28T21:21:39.342Z,21.23
2018-03-28T21:24:05.717Z,16.12
2018-03-28T21:26:32.041Z,12.98
2018-03-28T21:28:58.317Z,14.40
2018-03-28T21:31:24.603Z,16.58
2018-03-28T21:33:50.861Z,14.27
2018-03-28T21:36:17.238Z,14.50
2018-03-28T21:38:43.511Z,15.38
2018-03-28T21:41:10.657Z,16.90
2018-03-28T21:43:36.874Z,16.85
2018-03-28T21:46:03.175Z,16.30
2018-03-28T21:48:30.241Z,15.98
2018-03-28T21:50:57.041Z,18.20
2018-03-28T21:53:23.101Z,16.65
2018-03-28T21:55:49.978Z,17.08
2018-03-28T21:58:16.256Z,17.52
2018-03-28T22:00:42.461Z,16.55
2018-03-28T22:03:08.651Z,15.57
2018-03-28T22:05:34.858Z,16.80
2018-03-28T22:08:01.730Z,15.05
2018-03-28T22:10:27.798Z,16.42
2018-03-28T22:12:54.089Z,14.80
2018-03-28T22:15:20.880Z,13.93
2018-03-28T22:17:46.926Z,11.70
2018-03-28T22:20:12.973Z,11.93
2018-03-28T22:22:39.017Z,11.23
2018-03-28T22:25:05.102Z,10.38
2018-03-28T22:27:31.541Z,10.95
2018-03-28T22:29:57.636Z,10.05
2018-03-28T22:32:23.721Z,12.70
2018-03-28T22:34:50.563Z,11.68
2018-03-28T22:37:16.691Z,13.23
2018-03-28T22:39:45.624Z,13.00
2018-03-28T22:42:11.697Z,13.68
2018-03-28T22:44:39.054Z,16.85
2018-03-28T22:47:05.122Z,19.85
2018-03-28T22:49:32.928Z,22.48
2018-03-28T22:54:33.096Z,24.50
2018-03-28T22:56:59.262Z,21.20
2018-03-28T22:59:25.320Z,21.50
2018-03-28T23:01:51.381Z,20.55
2018-03-28T23:04:18.179Z,18.30
2018-03-28T23:06:45.146Z,16.23
2018-03-28T23:09:11.240Z,14.77
2018-03-28T23:11:39.066Z,14.00
2018-03-28T23:14:05.138Z,12.23
2018-03-28T23:16:31.205Z,13.55
2018-03-28T23:18:57.294Z,10.68
2018-03-28T23:21:23.342Z,12.05
2018-03-28T23:23:49.406Z,11.27
2018-03-28T23:26:16.197Z,11.90
2018-03-28T23:28:42.258Z,12.50
2018-03-28T23:31:08.306Z,11.23
2018-03-28T23:33:34.379Z,11.40
2018-03-28T23:36:00.490Z,11.93
2018-03-28T23:38:26.543Z,12.85
2018-03-28T23:40:53.389Z,12.37
2018-03-28T23:43:20.172Z,9.35
2018-03-28T23:45:46.218Z,9.20
2018-03-28T23:48:12.265Z,8.95
2018-03-28T23:50:38.314Z,8.93
2018-03-28T23:53:04.383Z,10.30
2018-03-28T23:55:31.187Z,10.88
2018-03-28T23:57:57.246Z,11.00
